This is the latest recevied weather packets stored in our database for station/object OH3FZQ-4. If no packets are shown the sender has not sent any weather packets the latest 10 day(s).
| Time | Temp. | Humidity | Pressure | Rain* | Wind** | Luminosity | Snow |
|---|---|---|---|---|---|---|---|
| 1777705579 | 13.33° C | 35% | 992.7 hPa | 0 mm | 0 m/s | - | - |
| 1777705219 | 13.33° C | 35% | 992.7 hPa | 0 mm | 0 m/s | - | - |
| 1777704858 | 13.33° C | 35% | 992.7 hPa | 0 mm | 0 m/s | - | - |
| 1777704498 | 13.33° C | 35% | 992.7 hPa | 0 mm | 0 m/s | - | - |
| 1777704138 | 13.89° C | 34% | 992.7 hPa | 0 mm | 0 m/s | - | - |
| 1777703779 | 13.89° C | 34% | 992.7 hPa | 0 mm | 0 m/s | - | - |
| 1777703418 | 13.89° C | 33% | 992.7 hPa | 0 mm | 0 m/s | - | - |
| 1777703059 | 14.44° C | 33% | 992.7 hPa | 0 mm | 0 m/s | - | - |
| 1777702698 | 15° C | 32% | 992.7 hPa | 0 mm | 0 m/s | - | - |
| 1777702339 | 15.56° C | 33% | 992.7 hPa | 0 mm | 0 m/s | - | - |
| 1777701979 | 16.11° C | 34% | 992.7 hPa | 0 mm | 0 m/s | - | - |
| 1777701618 | 16.11° C | 35% | 992.7 hPa | 0 mm | 0 m/s | - | - |
| 1777701259 | 15.56° C | 36% | 992.7 hPa | 0 mm | 0 m/s | - | - |
| 1777700899 | 14.44° C | 36% | 992.7 hPa | 0 mm | 0 m/s | - | - |
| 1777700777 | 14.44° C | 37% | 992.7 hPa | 0 mm | 0 m/s | - | - |
| 1777700417 | 13.89° C | 36% | 992.7 hPa | 0 mm | 0 m/s | - | - |
| 1777700057 | 13.89° C | 38% | 992.7 hPa | 0 mm | 0 m/s | - | - |
| 1777699697 | 13.89° C | 40% | 993.7 hPa | 0 mm | 0 m/s | - | - |
| 1777699337 | 13.33° C | 43% | 993.7 hPa | 0 mm | 0 m/s | - | - |
| 1777698977 | 12.78° C | 46% | 993.7 hPa | 0 mm | 0 m/s | - | - |
| 1777698617 | 12.22° C | 48% | 993.7 hPa | 0 mm | 0 m/s | - | - |
| 1777698257 | 11.67° C | 51% | 993.7 hPa | 0 mm | 0 m/s | - | - |
| 1777697897 | 10° C | 55% | 993.7 hPa | 0 mm | 0 m/s | - | - |
| 1777697537 | 8.89° C | 58% | 993.7 hPa | 0 mm | 0 m/s | - | - |
| 1777697177 | 8.33° C | 60% | 993.7 hPa | 0 mm | 0 m/s | - | - |
* Rain latest hour (hover to see other rain measurements)
** Current wind speed in m/s (hover to see current wind gust speed)